Time,TemperatureF,DewpointF,PressureIn,WindDirection,WindDirectionDegrees,WindSpeedMPH,WindSpeedGustMPH,Humidity,HourlyPrecipIn,Conditions,Clouds,dailyrainin,SoftwareType,DateUTC
2013-05-18 00:00:00,72.0,67.2,30.07,East,100,0.0,0.0,85,0.00,,,0.00,Wunderground v.1.15,2013-05-18 04:00:00,
2013-05-18 00:05:00,71.9,67.1,30.07,East,100,0.0,0.0,85,0.00,,,0.00,Wunderground v.1.15,2013-05-18 04:05:00,
2013-05-18 00:10:00,71.8,67.4,30.07,East,100,0.0,0.0,86,0.00,,,0.00,Wunderground v.1.15,2013-05-18 04:10:00,
2013-05-18 00:15:00,71.7,67.3,30.07,East,100,0.0,0.0,86,0.00,,,0.00,Wunderground v.1.15,2013-05-18 04:15:00,
2013-05-18 00:20:00,71.6,67.2,30.07,East,99,0.0,0.0,86,0.00,,,0.00,Wunderground v.1.15,2013-05-18 04:20:00,
2013-05-18 00:25:00,71.5,67.1,30.07,East,100,0.0,0.0,86,0.00,,,0.00,Wunderground v.1.15,2013-05-18 04:25:00,
2013-05-18 00:30:00,71.3,66.9,30.07,East,101,0.0,0.0,86,0.00,,,0.00,Wunderground v.1.15,2013-05-18 04:30:00,
2013-05-18 00:35:00,71.2,66.8,30.07,East,100,0.0,0.0,86,0.00,,,0.00,Wunderground v.1.15,2013-05-18 04:35:00,
2013-05-18 00:40:00,71.0,66.9,30.06,East,100,0.0,0.0,87,0.00,,,0.00,Wunderground v.1.15,2013-05-18 04:40:00,
2013-05-18 00:45:00,70.8,66.7,30.06,East,99,0.0,0.0,87,0.00,,,0.00,Wunderground v.1.15,2013-05-18 04:45:00,
2013-05-18 00:55:00,70.4,66.7,30.06,East,100,0.0,0.0,88,0.00,,,0.00,Wunderground v.1.15,2013-05-18 04:55:00,
2013-05-18 01:00:00,70.3,66.6,30.06,East,99,0.0,0.0,88,0.00,,,0.00,Wunderground v.1.15,2013-05-18 05:00:00,
2013-05-18 01:05:00,70.2,66.5,30.06,East,99,0.0,0.0,88,0.00,,,0.00,Wunderground v.1.15,2013-05-18 05:05:00,
2013-05-18 01:10:00,70.1,66.4,30.06,East,100,0.0,0.0,88,0.00,,,0.00,Wunderground v.1.15,2013-05-18 05:10:00,
2013-05-18 01:15:00,69.9,66.2,30.06,East,99,0.0,0.0,88,0.00,,,0.00,Wunderground v.1.15,2013-05-18 05:15:00,
2013-05-18 01:20:00,69.6,65.9,30.06,East,100,0.0,0.0,88,0.00,,,0.00,Wunderground v.1.15,2013-05-18 05:20:00,
2013-05-18 01:25:00,69.3,65.6,30.06,East,100,0.0,0.0,88,0.00,,,0.00,Wunderground v.1.15,2013-05-18 05:25:00,
2013-05-18 01:30:00,68.8,64.8,30.06,East,100,0.0,0.0,87,0.00,,,0.00,Wunderground v.1.15,2013-05-18 05:30:00,
2013-05-18 01:35:00,68.3,64.3,30.06,East,100,0.0,0.0,87,0.00,,,0.00,Wunderground v.1.15,2013-05-18 05:35:00,
2013-05-18 01:40:00,67.9,63.9,30.06,East,100,0.0,0.0,87,0.00,,,0.00,Wunderground v.1.15,2013-05-18 05:40:00,
2013-05-18 01:45:00,67.7,63.7,30.06,East,99,0.0,0.0,87,0.00,,,0.00,Wunderground v.1.15,2013-05-18 05:45:00,
2013-05-18 01:50:00,67.5,63.8,30.06,East,99,0.0,0.0,88,0.00,,,0.00,Wunderground v.1.15,2013-05-18 05:50:00,
2013-05-18 01:55:00,67.4,63.7,30.06,East,100,0.0,0.0,88,0.00,,,0.00,Wunderground v.1.15,2013-05-18 05:55:00,
2013-05-18 02:00:00,67.2,63.5,30.06,East,100,0.0,0.0,88,0.00,,,0.00,Wunderground v.1.15,2013-05-18 06:00:00,
2013-05-18 02:05:00,67.0,63.3,30.05,East,99,0.0,0.0,88,0.00,,,0.00,Wunderground v.1.15,2013-05-18 06:05:00,
2013-05-18 02:10:00,66.8,63.1,30.05,East,100,0.0,0.0,88,0.00,,,0.00,Wunderground v.1.15,2013-05-18 06:10:00,
2013-05-18 02:15:00,66.5,62.8,30.05,East,100,0.0,0.0,88,0.00,,,0.00,Wunderground v.1.15,2013-05-18 06:15:00,
2013-05-18 02:20:00,66.4,62.7,30.05,East,100,0.0,0.0,88,0.00,,,0.00,Wunderground v.1.15,2013-05-18 06:20:00,
2013-05-18 02:25:00,66.2,62.5,30.05,East,100,0.0,0.0,88,0.00,,,0.00,Wunderground v.1.15,2013-05-18 06:25:00,
2013-05-18 02:30:00,65.8,62.1,30.05,East,99,0.0,0.0,88,0.00,,,0.00,Wunderground v.1.15,2013-05-18 06:30:00,
2013-05-18 02:35:00,65.4,61.8,30.05,East,100,0.0,0.0,88,0.00,,,0.00,Wunderground v.1.15,2013-05-18 06:35:00,
2013-05-18 02:40:00,65.3,62.0,30.05,East,100,0.0,0.0,89,0.00,,,0.00,Wunderground v.1.15,2013-05-18 06:40:00,
2013-05-18 02:45:00,65.1,61.8,30.04,East,100,0.0,0.0,89,0.00,,,0.00,Wunderground v.1.15,2013-05-18 06:45:00,
2013-05-18 02:50:00,64.8,61.5,30.05,East,100,0.0,0.0,89,0.00,,,0.00,Wunderground v.1.15,2013-05-18 06:50:00,
2013-05-18 02:55:00,64.6,61.3,30.05,East,100,0.0,0.0,89,0.00,,,0.00,Wunderground v.1.15,2013-05-18 06:55:00,
2013-05-18 03:00:00,64.6,61.3,30.04,East,99,0.0,0.0,89,0.00,,,0.00,Wunderground v.1.15,2013-05-18 07:00:00,
2013-05-18 03:05:00,64.5,61.2,30.04,East,99,0.0,0.0,89,0.00,,,0.00,Wunderground v.1.15,2013-05-18 07:05:00,
2013-05-18 03:15:00,64.3,61.0,30.04,East,100,0.0,0.0,89,0.00,,,0.00,Wunderground v.1.15,2013-05-18 07:15:00,
2013-05-18 03:20:00,64.2,61.2,30.04,East,100,0.0,0.0,90,0.00,,,0.00,Wunderground v.1.15,2013-05-18 07:20:00,
2013-05-18 03:25:00,64.2,61.2,30.04,East,100,0.0,0.0,90,0.00,,,0.00,Wunderground v.1.15,2013-05-18 07:25:00,
2013-05-18 03:30:00,64.1,61.1,30.04,East,100,0.0,0.0,90,0.00,,,0.00,Wunderground v.1.15,2013-05-18 07:30:00,
2013-05-18 03:35:00,64.0,61.0,30.04,East,100,0.0,0.0,90,0.00,,,0.00,Wunderground v.1.15,2013-05-18 07:35:00,
2013-05-18 03:40:00,64.0,61.0,30.04,East,100,0.0,0.0,90,0.00,,,0.00,Wunderground v.1.15,2013-05-18 07:40:00,
2013-05-18 03:45:00,64.0,61.0,30.04,East,100,0.0,0.0,90,0.00,,,0.00,Wunderground v.1.15,2013-05-18 07:45:00,
2013-05-18 03:50:00,63.8,60.8,30.03,East,99,0.0,0.0,90,0.00,,,0.00,Wunderground v.1.15,2013-05-18 07:50:00,
2013-05-18 03:55:00,63.6,60.6,30.04,East,99,0.0,0.0,90,0.00,,,0.00,Wunderground v.1.15,2013-05-18 07:55:00,
2013-05-18 04:00:00,63.5,60.8,30.04,East,100,0.0,0.0,91,0.00,,,0.00,Wunderground v.1.15,2013-05-18 08:00:00,
2013-05-18 04:05:00,63.6,60.9,30.03,East,99,0.0,0.0,91,0.00,,,0.00,Wunderground v.1.15,2013-05-18 08:05:00,
2013-05-18 04:10:00,63.8,61.1,30.04,East,100,0.0,0.0,91,0.00,,,0.00,Wunderground v.1.15,2013-05-18 08:10:00,
2013-05-18 04:15:00,63.8,61.1,30.03,East,100,0.0,0.0,91,0.00,,,0.00,Wunderground v.1.15,2013-05-18 08:15:00,
2013-05-18 04:20:00,63.7,61.0,30.03,East,100,0.0,0.0,91,0.00,,,0.00,Wunderground v.1.15,2013-05-18 08:20:00,
2013-05-18 04:25:00,63.5,60.8,30.03,East,100,0.0,0.0,91,0.00,,,0.00,Wunderground v.1.15,2013-05-18 08:25:00,
2013-05-18 04:30:00,63.2,60.5,30.03,East,99,0.0,0.0,91,0.00,,,0.00,Wunderground v.1.15,2013-05-18 08:30:00,
2013-05-18 04:35:00,63.1,60.4,30.03,East,99,0.0,0.0,91,0.00,,,0.00,Wunderground v.1.15,2013-05-18 08:35:00,
2013-05-18 04:40:00,62.8,60.1,30.04,East,100,0.0,0.0,91,0.00,,,0.00,Wunderground v.1.15,2013-05-18 08:40:00,
2013-05-18 04:45:00,62.5,59.8,30.04,East,100,0.0,0.0,91,0.00,,,0.00,Wunderground v.1.15,2013-05-18 08:45:00,
2013-05-18 04:50:00,62.2,59.5,30.04,East,100,0.0,0.0,91,0.00,,,0.00,Wunderground v.1.15,2013-05-18 08:50:00,
2013-05-18 04:55:00,62.2,59.5,30.04,East,100,0.0,0.0,91,0.00,,,0.00,Wunderground v.1.15,2013-05-18 08:55:00,
2013-05-18 05:00:00,62.2,59.5,30.04,East,100,0.0,0.0,91,0.00,,,0.00,Wunderground v.1.15,2013-05-18 09:00:00,
2013-05-18 05:05:00,62.2,59.5,30.04,East,100,0.0,0.0,91,0.00,,,0.00,Wunderground v.1.15,2013-05-18 09:05:00,
2013-05-18 05:15:00,62.4,60.0,30.04,East,99,0.0,0.0,92,0.00,,,0.00,Wunderground v.1.15,2013-05-18 09:15:00,
2013-05-18 05:20:00,62.5,60.1,30.04,East,100,0.0,0.0,92,0.00,,,0.00,Wunderground v.1.15,2013-05-18 09:20:00,
2013-05-18 05:25:00,62.5,59.8,30.04,East,100,0.0,0.0,91,0.00,,,0.00,Wunderground v.1.15,2013-05-18 09:25:00,
2013-05-18 05:30:00,62.4,60.0,30.04,East,100,0.0,0.0,92,0.00,,,0.00,Wunderground v.1.15,2013-05-18 09:30:00,
2013-05-18 05:35:00,62.3,59.9,30.04,East,100,0.0,0.0,92,0.00,,,0.00,Wunderground v.1.15,2013-05-18 09:35:00,
2013-05-18 05:40:00,62.1,59.4,30.04,East,99,0.0,0.0,91,0.00,,,0.00,Wunderground v.1.15,2013-05-18 09:40:00,
2013-05-18 05:45:00,62.1,59.7,30.04,East,99,0.0,0.0,92,0.00,,,0.00,Wunderground v.1.15,2013-05-18 09:45:00,
2013-05-18 05:50:00,62.0,59.6,30.04,East,100,0.0,0.0,92,0.00,,,0.00,Wunderground v.1.15,2013-05-18 09:50:00,
2013-05-18 05:55:00,61.9,59.5,30.04,East,100,0.0,0.0,92,0.00,,,0.00,Wunderground v.1.15,2013-05-18 09:55:00,
2013-05-18 06:00:00,61.9,59.5,30.04,East,100,0.0,0.0,92,0.00,,,0.00,Wunderground v.1.15,2013-05-18 10:00:00,
2013-05-18 06:05:00,61.8,59.5,30.04,East,99,0.0,0.0,92,0.00,,,0.00,Wunderground v.1.15,2013-05-18 10:05:00,
2013-05-18 06:10:00,61.6,59.3,30.04,East,100,0.0,0.0,92,0.00,,,0.00,Wunderground v.1.15,2013-05-18 10:10:00,
2013-05-18 06:15:00,61.4,59.1,30.05,East,99,0.0,0.0,92,0.00,,,0.00,Wunderground v.1.15,2013-05-18 10:15:00,
2013-05-18 06:20:00,61.3,59.0,30.05,East,100,0.0,0.0,92,0.00,,,0.00,Wunderground v.1.15,2013-05-18 10:20:00,
2013-05-18 06:25:00,61.2,58.9,30.05,East,100,0.0,0.0,92,0.00,,,0.00,Wunderground v.1.15,2013-05-18 10:25:00,
2013-05-18 06:30:00,61.2,58.9,30.05,East,100,0.0,0.0,92,0.00,,,0.00,Wunderground v.1.15,2013-05-18 10:30:00,
2013-05-18 06:35:00,61.2,58.9,30.05,East,100,0.0,0.0,92,0.00,,,0.00,Wunderground v.1.15,2013-05-18 10:35:00,
2013-05-18 06:40:00,61.3,59.0,30.05,East,99,0.0,0.0,92,0.00,,,0.00,Wunderground v.1.15,2013-05-18 10:40:00,
2013-05-18 06:45:00,61.4,59.1,30.05,East,100,0.0,0.0,92,0.00,,,0.00,Wunderground v.1.15,2013-05-18 10:45:00,
2013-05-18 06:50:00,61.6,59.3,30.06,East,99,0.0,0.0,92,0.00,,,0.00,Wunderground v.1.15,2013-05-18 10:50:00,
2013-05-18 06:55:00,61.8,59.8,30.06,East,100,0.0,0.0,93,0.00,,,0.00,Wunderground v.1.15,2013-05-18 10:55:00,
2013-05-18 07:00:00,62.1,60.1,30.06,East,99,0.0,0.0,93,0.00,,,0.00,Wunderground v.1.15,2013-05-18 11:00:00,
2013-05-18 07:05:00,62.4,60.3,30.06,East,100,0.0,0.0,93,0.00,,,0.00,Wunderground v.1.15,2013-05-18 11:05:00,
2013-05-18 07:10:00,62.7,60.6,30.06,East,99,0.0,0.0,93,0.00,,,0.00,Wunderground v.1.15,2013-05-18 11:10:00,
2013-05-18 07:15:00,63.1,61.0,30.06,East,100,0.0,0.0,93,0.00,,,0.00,Wunderground v.1.15,2013-05-18 11:15:00,
2013-05-18 07:20:00,63.7,61.6,30.07,East,101,0.0,0.0,93,0.00,,,0.00,Wunderground v.1.15,2013-05-18 11:20:00,
2013-05-18 07:25:00,64.5,62.4,30.07,East,100,0.0,0.0,93,0.00,,,0.00,Wunderground v.1.15,2013-05-18 11:25:00,
2013-05-18 07:30:00,65.4,63.6,30.07,East,100,0.0,0.0,94,0.00,,,0.00,Wunderground v.1.15,2013-05-18 11:30:00,
2013-05-18 07:40:00,67.4,65.6,30.06,East,100,0.0,0.0,94,0.00,,,0.00,Wunderground v.1.15,2013-05-18 11:40:00,
2013-05-18 07:45:00,68.3,66.5,30.06,East,101,0.0,0.0,94,0.00,,,0.00,Wunderground v.1.15,2013-05-18 11:45:00,
2013-05-18 07:50:00,69.2,67.4,30.06,East,101,0.0,0.0,94,0.00,,,0.00,Wunderground v.1.15,2013-05-18 11:50:00,
2013-05-18 07:55:00,69.9,68.1,30.07,East,101,0.0,0.0,94,0.00,,,0.00,Wunderground v.1.15,2013-05-18 11:55:00,
2013-05-18 08:00:00,70.6,68.8,30.06,East,101,0.0,0.0,94,0.00,,,0.00,Wunderground v.1.15,2013-05-18 12:00:00,
2013-05-18 08:05:00,71.3,69.5,30.06,East,101,0.0,0.0,94,0.00,,,0.00,Wunderground v.1.15,2013-05-18 12:05:00,
2013-05-18 08:10:00,71.9,69.8,30.07,East,101,0.0,0.0,93,0.00,,,0.00,Wunderground v.1.15,2013-05-18 12:10:00,
2013-05-18 08:20:00,73.1,71.0,30.07,East,101,0.0,3.0,93,0.00,,,0.00,Wunderground v.1.15,2013-05-18 12:20:00,
2013-05-18 08:25:00,73.6,71.1,30.07,East,101,1.0,3.0,92,0.00,,,0.00,Wunderground v.1.15,2013-05-18 12:25:00,
2013-05-18 08:30:00,74.2,71.7,30.07,East,101,2.0,2.0,92,0.00,,,0.00,Wunderground v.1.15,2013-05-18 12:30:00,
2013-05-18 08:35:00,74.8,72.0,30.07,East,101,2.0,4.0,91,0.00,,,0.00,Wunderground v.1.15,2013-05-18 12:35:00,
2013-05-18 08:40:00,75.3,72.5,30.07,East,101,2.0,4.0,91,0.00,,,0.00,Wunderground v.1.15,2013-05-18 12:40:00,
2013-05-18 08:45:00,75.7,72.6,30.07,East,101,3.0,4.0,90,0.00,,,0.00,Wunderground v.1.15,2013-05-18 12:45:00,
2013-05-18 08:50:00,76.1,73.0,30.07,East,101,4.0,4.0,90,0.00,,,0.00,Wunderground v.1.15,2013-05-18 12:50:00,
2013-05-18 08:55:00,76.7,73.2,30.08,East,101,4.0,4.0,89,0.00,,,0.00,Wunderground v.1.15,2013-05-18 12:55:00,
2013-05-18 09:05:00,77.8,74.0,30.08,SE,130,4.0,4.0,88,0.00,,,0.00,Wunderground v.1.15,2013-05-18 13:05:00,
2013-05-18 09:10:00,78.1,73.9,30.08,SE,130,4.0,4.0,87,0.00,,,0.00,Wunderground v.1.15,2013-05-18 13:10:00,
2013-05-18 09:20:00,78.7,74.2,30.08,SE,132,3.0,3.0,86,0.00,,,0.00,Wunderground v.1.15,2013-05-18 13:20:00,
2013-05-18 09:25:00,79.1,74.2,30.08,SE,134,3.0,3.0,85,0.00,,,0.00,Wunderground v.1.15,2013-05-18 13:25:00,
2013-05-18 09:30:00,79.4,74.5,30.08,SE,134,2.0,2.0,85,0.00,,,0.00,Wunderground v.1.15,2013-05-18 13:30:00,
2013-05-18 09:35:00,79.8,74.5,30.08,SE,134,2.0,5.0,84,0.00,,,0.00,Wunderground v.1.15,2013-05-18 13:35:00,
2013-05-18 09:40:00,80.1,74.5,30.08,SE,140,3.0,5.0,83,0.00,,,0.00,Wunderground v.1.15,2013-05-18 13:40:00,
2013-05-18 09:45:00,80.3,74.7,30.08,SE,141,3.0,5.0,83,0.00,,,0.00,Wunderground v.1.15,2013-05-18 13:45:00,
2013-05-18 09:50:00,80.6,74.6,30.08,SE,142,2.0,3.0,82,0.00,,,0.00,Wunderground v.1.15,2013-05-18 13:50:00,
2013-05-18 09:55:00,80.9,74.9,30.08,SE,143,2.0,3.0,82,0.00,,,0.00,Wunderground v.1.15,2013-05-18 13:55:00,
2013-05-18 10:00:00,80.9,74.1,30.08,SE,142,2.0,4.0,80,0.00,,,0.00,Wunderground v.1.15,2013-05-18 14:00:00,
2013-05-18 10:05:00,81.3,74.5,30.08,SE,142,2.0,4.0,80,0.00,,,0.00,Wunderground v.1.15,2013-05-18 14:05:00,
2013-05-18 10:15:00,81.4,73.9,30.08,SE,143,2.0,3.0,78,0.00,,,0.00,Wunderground v.1.15,2013-05-18 14:15:00,
2013-05-18 10:20:00,81.7,73.8,30.08,SE,143,1.0,1.0,77,0.00,,,0.00,Wunderground v.1.15,2013-05-18 14:20:00,
2013-05-18 10:30:00,82.3,74.0,30.08,SE,143,1.0,1.0,76,0.00,,,0.00,Wunderground v.1.15,2013-05-18 14:30:00,
2013-05-18 10:35:00,82.8,74.5,30.08,SE,143,0.0,1.0,76,0.00,,,0.00,Wunderground v.1.15,2013-05-18 14:35:00,
2013-05-18 10:40:00,83.2,73.6,30.08,SE,142,1.0,1.0,73,0.00,,,0.00,Wunderground v.1.15,2013-05-18 14:40:00,
2013-05-18 10:45:00,83.8,73.8,30.08,SE,142,1.0,1.0,72,0.00,,,0.00,Wunderground v.1.15,2013-05-18 14:45:00,
2013-05-18 10:50:00,84.2,73.3,30.08,SE,142,1.0,1.0,70,0.00,,,0.00,Wunderground v.1.15,2013-05-18 14:50:00,
2013-05-18 10:55:00,84.4,73.5,30.08,SE,143,1.0,1.0,70,0.00,,,0.00,Wunderground v.1.15,2013-05-18 14:55:00,
2013-05-18 11:00:00,84.4,72.2,30.08,SE,142,1.0,2.0,67,0.00,,,0.00,Wunderground v.1.15,2013-05-18 15:00:00,
2013-05-18 11:05:00,84.3,72.6,30.08,SE,143,1.0,2.0,68,0.00,,,0.00,Wunderground v.1.15,2013-05-18 15:05:00,
2013-05-18 11:10:00,84.6,72.9,30.07,SE,143,0.0,0.0,68,0.00,,,0.00,Wunderground v.1.15,2013-05-18 15:10:00,
2013-05-18 11:15:00,85.1,72.9,30.08,SE,143,0.0,5.0,67,0.00,,,0.00,Wunderground v.1.15,2013-05-18 15:15:00,
2013-05-18 11:20:00,85.1,71.1,30.08,SE,142,1.0,1.0,63,0.00,,,0.00,Wunderground v.1.15,2013-05-18 15:20:00,
2013-05-18 11:25:00,85.4,71.4,30.07,SE,142,1.0,1.0,63,0.00,,,0.00,Wunderground v.1.15,2013-05-18 15:25:00,
2013-05-18 11:30:00,85.7,71.2,30.07,SE,146,1.0,3.0,62,0.00,,,0.00,Wunderground v.1.15,2013-05-18 15:30:00,
2013-05-18 11:35:00,86.2,71.2,30.07,SE,146,3.0,3.0,61,0.00,,,0.00,Wunderground v.1.15,2013-05-18 15:35:00,
2013-05-18 11:40:00,86.6,70.6,30.07,SE,145,2.0,2.0,59,0.00,,,0.00,Wunderground v.1.15,2013-05-18 15:40:00,
2013-05-18 11:45:00,86.9,71.8,30.07,SSE,147,2.0,2.0,61,0.00,,,0.00,Wunderground v.1.15,2013-05-18 15:45:00,
2013-05-18 11:50:00,87.0,70.9,30.07,SSE,150,3.0,3.0,59,0.00,,,0.00,Wunderground v.1.15,2013-05-18 15:50:00,
2013-05-18 11:55:00,86.9,71.3,30.07,SSE,150,1.0,3.0,60,0.00,,,0.00,Wunderground v.1.15,2013-05-18 15:55:00,
2013-05-18 12:00:00,87.1,71.5,30.07,SSE,154,1.0,4.0,60,0.00,,,0.00,Wunderground v.1.15,2013-05-18 16:00:00,
2013-05-18 12:05:00,87.7,71.6,30.06,SSE,157,2.0,4.0,59,0.00,,,0.00,Wunderground v.1.15,2013-05-18 16:05:00,
2013-05-18 12:10:00,88.2,71.6,30.06,SSE,157,1.0,5.0,58,0.00,,,0.00,Wunderground v.1.15,2013-05-18 16:10:00,
2013-05-18 12:15:00,87.9,70.2,30.06,SSE,157,1.0,5.0,56,0.00,,,0.00,Wunderground v.1.15,2013-05-18 16:15:00,
2013-05-18 12:20:00,87.5,69.9,30.06,SSE,156,2.0,3.0,56,0.00,,,0.00,Wunderground v.1.15,2013-05-18 16:20:00,
2013-05-18 12:25:00,87.9,70.2,30.06,SSE,157,2.0,3.0,56,0.00,,,0.00,Wunderground v.1.15,2013-05-18 16:25:00,
2013-05-18 12:30:00,88.6,70.4,30.05,SSE,153,2.0,5.0,55,0.00,,,0.00,Wunderground v.1.15,2013-05-18 16:30:00,
2013-05-18 12:35:00,88.6,69.8,30.05,SSE,153,4.0,5.0,54,0.00,,,0.00,Wunderground v.1.15,2013-05-18 16:35:00,
2013-05-18 12:40:00,88.8,69.5,30.05,SSE,152,2.0,2.0,53,0.00,,,0.00,Wunderground v.1.15,2013-05-18 16:40:00,
2013-05-18 12:45:00,89.2,69.3,30.05,SSE,152,1.0,2.0,52,0.00,,,0.00,Wunderground v.1.15,2013-05-18 16:45:00,
2013-05-18 12:50:00,89.7,68.6,30.05,SSE,158,3.0,4.0,50,0.00,,,0.00,Wunderground v.1.15,2013-05-18 16:50:00,
2013-05-18 12:55:00,89.6,67.3,30.05,SSE,158,4.0,4.0,48,0.00,,,0.00,Wunderground v.1.15,2013-05-18 16:55:00,
2013-05-18 13:00:00,89.7,67.4,30.04,SSE,160,4.0,4.0,48,0.00,,,0.00,Wunderground v.1.15,2013-05-18 17:00:00,
2013-05-18 13:05:00,89.7,69.2,30.04,ESE,109,3.0,4.0,51,0.00,,,0.00,Wunderground v.1.15,2013-05-18 17:05:00,
2013-05-18 13:10:00,89.7,69.2,30.04,ESE,115,3.0,5.0,51,0.00,,,0.00,Wunderground v.1.15,2013-05-18 17:10:00,
2013-05-18 13:15:00,89.8,69.3,30.04,ESE,123,4.0,5.0,51,0.00,,,0.00,Wunderground v.1.15,2013-05-18 17:15:00,
2013-05-18 13:25:00,89.8,68.7,30.03,ESE,121,3.0,6.0,50,0.00,,,0.00,Wunderground v.1.15,2013-05-18 17:25:00,
2013-05-18 13:30:00,89.9,68.8,30.03,SE,134,3.0,3.0,50,0.00,,,0.00,Wunderground v.1.15,2013-05-18 17:30:00,
2013-05-18 13:35:00,90.2,68.5,30.03,SSE,153,3.0,5.0,49,0.00,,,0.00,Wunderground v.1.15,2013-05-18 17:35:00,
2013-05-18 13:45:00,91.0,68.0,30.03,South,172,3.0,5.0,47,0.00,,,0.00,Wunderground v.1.15,2013-05-18 17:45:00,
2013-05-18 13:55:00,91.4,67.1,30.03,South,169,4.0,5.0,45,0.00,,,0.00,Wunderground v.1.15,2013-05-18 17:55:00,
2013-05-18 14:00:00,91.4,65.8,30.03,South,169,4.0,4.0,43,0.00,,,0.00,Wunderground v.1.15,2013-05-18 18:00:00,
2013-05-18 14:05:00,90.9,65.3,30.03,South,169,2.0,4.0,43,0.00,,,0.00,Wunderground v.1.15,2013-05-18 18:05:00,
2013-05-18 14:15:00,90.6,65.0,30.02,South,169,1.0,1.0,43,0.00,,,0.00,Wunderground v.1.15,2013-05-18 18:15:00,
2013-05-18 14:20:00,91.1,66.2,30.02,SSE,165,2.0,2.0,44,0.00,,,0.00,Wunderground v.1.15,2013-05-18 18:20:00,
2013-05-18 14:25:00,91.4,65.8,30.02,SSE,164,3.0,5.0,43,0.00,,,0.00,Wunderground v.1.15,2013-05-18 18:25:00,
2013-05-18 14:30:00,92.1,66.4,30.02,SSE,164,2.0,2.0,43,0.00,,,0.00,Wunderground v.1.15,2013-05-18 18:30:00,
2013-05-18 14:35:00,92.7,65.6,30.02,SSE,164,0.0,2.0,41,0.00,,,0.00,Wunderground v.1.15,2013-05-18 18:35:00,
2013-05-18 14:40:00,91.9,65.5,30.02,SSE,164,0.0,0.0,42,0.00,,,0.00,Wunderground v.1.15,2013-05-18 18:40:00,
2013-05-18 14:45:00,91.4,65.1,30.02,SSE,164,0.0,1.0,42,0.00,,,0.00,Wunderground v.1.15,2013-05-18 18:45:00,
2013-05-18 14:50:00,91.0,65.4,30.02,SSE,164,0.0,0.0,43,0.00,,,0.00,Wunderground v.1.15,2013-05-18 18:50:00,
2013-05-18 14:55:00,90.8,66.5,30.01,SSE,164,0.0,0.0,45,0.00,,,0.00,Wunderground v.1.15,2013-05-18 18:55:00,
2013-05-18 15:00:00,90.4,65.5,30.01,SSE,164,0.0,0.0,44,0.00,,,0.00,Wunderground v.1.15,2013-05-18 19:00:00,
2013-05-18 15:05:00,90.0,66.4,30.01,SSE,164,0.0,0.0,46,0.00,,,0.00,Wunderground v.1.15,2013-05-18 19:05:00,
2013-05-18 15:15:00,89.3,65.8,30.01,SSE,164,1.0,4.0,46,0.00,,,0.00,Wunderground v.1.15,2013-05-18 19:15:00,
2013-05-18 15:25:00,89.1,65.0,30.01,SSE,164,1.0,1.0,45,0.00,,,0.00,Wunderground v.1.15,2013-05-18 19:25:00,
2013-05-18 15:30:00,89.3,65.2,30.00,SSE,164,1.0,1.0,45,0.00,,,0.00,Wunderground v.1.15,2013-05-18 19:30:00,
2013-05-18 15:35:00,89.5,66.6,30.00,SSE,164,0.0,1.0,47,0.00,,,0.00,Wunderground v.1.15,2013-05-18 19:35:00,
2013-05-18 15:45:00,91.1,66.8,30.00,SSE,164,0.0,0.0,45,0.00,,,0.00,Wunderground v.1.15,2013-05-18 19:45:00,
2013-05-18 15:50:00,91.9,67.5,30.00,SSE,164,0.0,0.0,45,0.00,,,0.00,Wunderground v.1.15,2013-05-18 19:50:00,
2013-05-18 15:55:00,92.4,68.0,30.00,SSE,150,0.0,8.0,45,0.00,,,0.00,Wunderground v.1.15,2013-05-18 19:55:00,
2013-05-18 16:00:00,92.4,67.3,30.00,ESE,110,2.0,3.0,44,0.00,,,0.00,Wunderground v.1.15,2013-05-18 20:00:00,
2013-05-18 16:05:00,92.3,67.2,29.99,ESE,109,2.0,3.0,44,0.00,,,0.00,Wunderground v.1.15,2013-05-18 20:05:00,
2013-05-18 16:10:00,91.9,66.9,29.99,ESE,110,1.0,2.0,44,0.00,,,0.00,Wunderground v.1.15,2013-05-18 20:10:00,
2013-05-18 16:15:00,91.3,65.7,29.99,ESE,109,1.0,3.0,43,0.00,,,0.00,Wunderground v.1.15,2013-05-18 20:15:00,
2013-05-18 16:20:00,90.8,65.9,29.99,ESE,109,1.0,1.0,44,0.00,,,0.00,Wunderground v.1.15,2013-05-18 20:20:00,
2013-05-18 16:30:00,90.8,67.2,29.99,ENE,67,2.0,2.0,46,0.00,,,0.00,Wunderground v.1.15,2013-05-18 20:30:00,
2013-05-18 16:35:00,90.9,66.6,29.99,NE,52,4.0,4.0,45,0.00,,,0.00,Wunderground v.1.15,2013-05-18 20:35:00,
2013-05-18 16:40:00,91.0,68.0,29.98,NE,44,3.0,3.0,47,0.00,,,0.00,Wunderground v.1.15,2013-05-18 20:40:00,
2013-05-18 16:45:00,91.8,68.1,29.98,NE,49,2.0,7.0,46,0.00,,,0.00,Wunderground v.1.15,2013-05-18 20:45:00,
2013-05-18 16:50:00,91.7,67.3,29.98,ENE,61,3.0,4.0,45,0.00,,,0.00,Wunderground v.1.15,2013-05-18 20:50:00,
2013-05-18 16:55:00,91.1,66.2,29.98,NE,56,3.0,4.0,44,0.00,,,0.00,Wunderground v.1.15,2013-05-18 20:55:00,
2013-05-18 17:00:00,91.0,66.7,29.98,NE,45,3.0,5.0,45,0.00,,,0.00,Wunderground v.1.15,2013-05-18 21:00:00,
2013-05-18 17:05:00,90.6,66.3,29.98,NE,36,4.0,5.0,45,0.00,,,0.00,Wunderground v.1.15,2013-05-18 21:05:00,
2013-05-18 17:10:00,90.5,66.9,29.98,NE,36,3.0,3.0,46,0.00,,,0.00,Wunderground v.1.15,2013-05-18 21:10:00,
2013-05-18 17:15:00,91.1,66.8,29.97,NE,36,0.0,3.0,45,0.00,,,0.00,Wunderground v.1.15,2013-05-18 21:15:00,
2013-05-18 17:20:00,91.8,67.4,29.97,NE,36,0.0,0.0,45,0.00,,,0.00,Wunderground v.1.15,2013-05-18 21:20:00,
2013-05-18 17:25:00,91.6,66.6,29.97,NE,44,2.0,4.0,44,0.00,,,0.00,Wunderground v.1.15,2013-05-18 21:25:00,
2013-05-18 17:30:00,90.8,67.2,29.97,NE,46,3.0,3.0,46,0.00,,,0.00,Wunderground v.1.15,2013-05-18 21:30:00,
2013-05-18 17:35:00,90.4,66.8,29.97,NE,45,2.0,4.0,46,0.00,,,0.00,Wunderground v.1.15,2013-05-18 21:35:00,
2013-05-18 17:40:00,90.3,67.3,29.97,NE,46,2.0,2.0,47,0.00,,,0.00,Wunderground v.1.15,2013-05-18 21:40:00,
2013-05-18 17:45:00,90.4,66.8,29.97,NE,45,2.0,2.0,46,0.00,,,0.00,Wunderground v.1.15,2013-05-18 21:45:00,
2013-05-18 17:55:00,90.0,66.4,29.97,NE,42,2.0,4.0,46,0.00,,,0.00,Wunderground v.1.15,2013-05-18 21:55:00,
2013-05-18 18:00:00,89.7,66.2,29.97,NE,42,1.0,1.0,46,0.00,,,0.00,Wunderground v.1.15,2013-05-18 22:00:00,
2013-05-18 18:05:00,89.5,66.6,29.96,NE,41,0.0,1.0,47,0.00,,,0.00,Wunderground v.1.15,2013-05-18 22:05:00,
2013-05-18 18:10:00,89.5,66.6,29.96,NE,41,1.0,1.0,47,0.00,,,0.00,Wunderground v.1.15,2013-05-18 22:10:00,
2013-05-18 18:15:00,89.5,67.2,29.96,NE,42,1.0,4.0,48,0.00,,,0.00,Wunderground v.1.15,2013-05-18 22:15:00,
2013-05-18 18:20:00,89.0,66.8,29.97,NE,41,2.0,5.0,48,0.00,,,0.00,Wunderground v.1.15,2013-05-18 22:20:00,
2013-05-18 18:25:00,88.9,66.1,29.97,NE,40,3.0,5.0,47,0.00,,,0.00,Wunderground v.1.15,2013-05-18 22:25:00,
2013-05-18 18:30:00,88.9,66.1,29.97,NE,40,3.0,3.0,47,0.00,,,0.00,Wunderground v.1.15,2013-05-18 22:30:00,
2013-05-18 18:35:00,88.8,67.8,29.97,NE,40,1.0,3.0,50,0.00,,,0.00,Wunderground v.1.15,2013-05-18 22:35:00,
2013-05-18 18:40:00,88.6,67.6,29.97,NE,40,1.0,1.0,50,0.00,,,0.00,Wunderground v.1.15,2013-05-18 22:40:00,
2013-05-18 18:45:00,88.4,68.0,29.97,NE,40,1.0,1.0,51,0.00,,,0.00,Wunderground v.1.15,2013-05-18 22:45:00,
2013-05-18 18:50:00,88.2,67.8,29.97,NE,40,1.0,1.0,51,0.00,,,0.00,Wunderground v.1.15,2013-05-18 22:50:00,
2013-05-18 18:55:00,88.1,70.9,29.97,ESE,113,2.0,7.0,57,0.00,,,0.00,Wunderground v.1.15,2013-05-18 22:55:00,
2013-05-18 19:00:00,87.4,71.8,29.97,SE,127,5.0,8.0,60,0.00,,,0.00,Wunderground v.1.15,2013-05-18 23:00:00,
2013-05-18 19:05:00,86.6,72.0,29.98,East,101,6.0,8.0,62,0.00,,,0.00,Wunderground v.1.15,2013-05-18 23:05:00,
2013-05-18 19:10:00,86.0,72.4,29.98,East,98,5.0,5.0,64,0.00,,,0.00,Wunderground v.1.15,2013-05-18 23:10:00,
2013-05-18 19:15:00,85.3,72.2,29.98,East,98,4.0,5.0,65,0.00,,,0.00,Wunderground v.1.15,2013-05-18 23:15:00,
2013-05-18 19:20:00,84.8,72.2,29.98,East,87,4.0,5.0,66,0.00,,,0.00,Wunderground v.1.15,2013-05-18 23:20:00,
2013-05-18 19:25:00,84.3,72.1,29.98,East,97,5.0,5.0,67,0.00,,,0.00,Wunderground v.1.15,2013-05-18 23:25:00,
2013-05-18 19:30:00,83.7,71.6,29.98,East,99,5.0,10.0,67,0.00,,,0.00,Wunderground v.1.15,2013-05-18 23:30:00,
2013-05-18 19:35:00,83.3,71.6,29.98,ESE,109,6.0,10.0,68,0.00,,,0.00,Wunderground v.1.15,2013-05-18 23:35:00,
2013-05-18 19:40:00,82.9,71.7,29.99,ESE,115,6.0,6.0,69,0.00,,,0.00,Wunderground v.1.15,2013-05-18 23:40:00,
2013-05-18 19:45:00,82.6,71.4,29.99,ESE,107,4.0,6.0,69,0.00,,,0.00,Wunderground v.1.15,2013-05-18 23:45:00,
2013-05-18 19:50:00,82.4,71.6,29.99,ESE,107,4.0,4.0,70,0.00,,,0.00,Wunderground v.1.15,2013-05-18 23:50:00,
2013-05-18 19:55:00,82.1,71.8,29.99,East,88,4.0,4.0,71,0.00,,,0.00,Wunderground v.1.15,2013-05-18 23:55:00,
2013-05-18 20:00:00,82.0,71.7,29.99,East,94,3.0,6.0,71,0.00,,,0.00,Wunderground v.1.15,2013-05-19 00:00:00,
2013-05-18 20:05:00,81.7,71.4,30.00,ESE,102,3.0,6.0,71,0.00,,,0.00,Wunderground v.1.15,2013-05-19 00:05:00,
2013-05-18 20:10:00,81.4,71.5,30.00,East,98,2.0,2.0,72,0.00,,,0.00,Wunderground v.1.15,2013-05-19 00:10:00,
2013-05-18 20:15:00,81.2,71.3,30.00,East,97,2.0,4.0,72,0.00,,,0.00,Wunderground v.1.15,2013-05-19 00:15:00,
2013-05-18 20:20:00,80.9,71.0,30.00,ESE,102,3.0,3.0,72,0.00,,,0.00,Wunderground v.1.15,2013-05-19 00:20:00,
2013-05-18 20:25:00,80.7,71.2,30.00,ESE,109,3.0,3.0,73,0.00,,,0.00,Wunderground v.1.15,2013-05-19 00:25:00,
2013-05-18 20:30:00,80.5,71.0,30.00,ESE,114,3.0,5.0,73,0.00,,,0.00,Wunderground v.1.15,2013-05-19 00:30:00,
2013-05-18 20:35:00,80.3,70.9,30.00,ESE,114,3.0,5.0,73,0.00,,,0.00,Wunderground v.1.15,2013-05-19 00:35:00,
2013-05-18 20:40:00,80.1,71.1,30.00,ESE,115,3.0,3.0,74,0.00,,,0.00,Wunderground v.1.15,2013-05-19 00:40:00,
2013-05-18 20:45:00,79.9,70.9,30.00,ESE,111,3.0,6.0,74,0.00,,,0.00,Wunderground v.1.15,2013-05-19 00:45:00,
2013-05-18 20:50:00,79.8,71.2,30.00,ESE,110,3.0,3.0,75,0.00,,,0.00,Wunderground v.1.15,2013-05-19 00:50:00,
2013-05-18 20:55:00,79.5,70.9,30.00,ESE,110,2.0,3.0,75,0.00,,,0.00,Wunderground v.1.15,2013-05-19 00:55:00,
2013-05-18 21:00:00,79.3,71.1,30.00,ESE,110,2.0,4.0,76,0.00,,,0.00,Wunderground v.1.15,2013-05-19 01:00:00,
2013-05-18 21:05:00,79.2,71.0,30.00,ESE,110,3.0,4.0,76,0.00,,,0.00,Wunderground v.1.15,2013-05-19 01:05:00,
2013-05-18 21:10:00,79.1,70.9,30.00,ESE,110,3.0,4.0,76,0.00,,,0.00,Wunderground v.1.15,2013-05-19 01:10:00,
2013-05-18 21:15:00,78.9,70.7,30.00,ESE,110,3.0,4.0,76,0.00,,,0.00,Wunderground v.1.15,2013-05-19 01:15:00,
2013-05-18 21:20:00,78.7,70.9,30.00,ESE,110,3.0,4.0,77,0.00,,,0.00,Wunderground v.1.15,2013-05-19 01:20:00,
2013-05-18 21:25:00,78.7,70.9,30.01,ESE,111,4.0,4.0,77,0.00,,,0.00,Wunderground v.1.15,2013-05-19 01:25:00,
2013-05-18 21:35:00,78.5,71.1,30.01,ESE,111,2.0,4.0,78,0.00,,,0.00,Wunderground v.1.15,2013-05-19 01:35:00,
2013-05-18 21:40:00,78.4,71.0,30.01,ESE,111,2.0,4.0,78,0.00,,,0.00,Wunderground v.1.15,2013-05-19 01:40:00,
2013-05-18 21:45:00,78.3,71.2,30.01,ESE,110,3.0,4.0,79,0.00,,,0.00,Wunderground v.1.15,2013-05-19 01:45:00,
2013-05-18 21:50:00,78.3,71.2,30.02,ESE,113,3.0,4.0,79,0.00,,,0.00,Wunderground v.1.15,2013-05-19 01:50:00,
2013-05-18 21:55:00,78.2,71.2,30.02,ESE,114,3.0,4.0,79,0.00,,,0.00,Wunderground v.1.15,2013-05-19 01:55:00,
2013-05-18 22:00:00,78.2,71.2,30.03,ESE,117,3.0,4.0,79,0.00,,,0.00,Wunderground v.1.15,2013-05-19 02:00:00,
2013-05-18 22:05:00,78.3,71.2,30.03,ESE,123,4.0,4.0,79,0.00,,,0.00,Wunderground v.1.15,2013-05-19 02:05:00,
2013-05-18 22:10:00,78.4,71.3,30.03,SE,137,5.0,6.0,79,0.00,,,0.00,Wunderground v.1.15,2013-05-19 02:10:00,
2013-05-18 22:15:00,78.5,71.4,30.03,SE,132,5.0,6.0,79,0.00,,,0.00,Wunderground v.1.15,2013-05-19 02:15:00,
2013-05-18 22:20:00,78.5,71.4,30.03,SE,134,4.0,9.0,79,0.00,,,0.00,Wunderground v.1.15,2013-05-19 02:20:00,
2013-05-18 22:25:00,78.4,71.7,30.04,SE,134,3.0,9.0,80,0.00,,,0.00,Wunderground v.1.15,2013-05-19 02:25:00,
2013-05-18 22:30:00,78.3,71.2,30.04,ESE,118,4.0,6.0,79,0.00,,,0.00,Wunderground v.1.15,2013-05-19 02:30:00,
2013-05-18 22:35:00,78.2,71.2,30.04,ESE,117,5.0,6.0,79,0.00,,,0.00,Wunderground v.1.15,2013-05-19 02:35:00,
2013-05-18 22:40:00,78.0,71.3,30.04,ESE,115,4.0,5.0,80,0.00,,,0.00,Wunderground v.1.15,2013-05-19 02:40:00,
2013-05-18 22:45:00,77.9,71.2,30.04,ESE,115,3.0,5.0,80,0.00,,,0.00,Wunderground v.1.15,2013-05-19 02:45:00,
2013-05-18 22:55:00,77.7,71.4,30.04,ESE,116,2.0,5.0,81,0.00,,,0.00,Wunderground v.1.15,2013-05-19 02:55:00,
2013-05-18 23:00:00,77.6,71.3,30.04,ESE,116,3.0,4.0,81,0.00,,,0.00,Wunderground v.1.15,2013-05-19 03:00:00,
2013-05-18 23:05:00,77.6,71.3,30.03,ESE,116,3.0,4.0,81,0.00,,,0.00,Wunderground v.1.15,2013-05-19 03:05:00,
2013-05-18 23:10:00,77.5,71.2,30.04,ESE,115,3.0,3.0,81,0.00,,,0.00,Wunderground v.1.15,2013-05-19 03:10:00,
2013-05-18 23:15:00,77.5,71.6,30.04,ESE,117,2.0,5.0,82,0.00,,,0.00,Wunderground v.1.15,2013-05-19 03:15:00,
2013-05-18 23:20:00,77.5,71.6,30.04,ESE,122,3.0,4.0,82,0.00,,,0.00,Wunderground v.1.15,2013-05-19 03:20:00,
2013-05-18 23:25:00,77.6,71.7,30.04,SE,136,5.0,5.0,82,0.00,,,0.00,Wunderground v.1.15,2013-05-19 03:25:00,
2013-05-18 23:35:00,77.5,71.6,30.04,SE,140,4.0,6.0,82,0.00,,,0.00,Wunderground v.1.15,2013-05-19 03:35:00,
2013-05-18 23:45:00,77.4,71.5,30.04,SSE,147,4.0,11.0,82,0.00,,,0.00,Wunderground v.1.15,2013-05-19 03:45:00,
2013-05-18 23:50:00,77.3,71.4,30.04,SE,138,5.0,6.0,82,0.00,,,0.00,Wunderground v.1.15,2013-05-19 03:50:00,
2013-05-18 23:55:00,77.3,71.4,30.03,SE,142,7.0,7.0,82,0.00,,,0.00,Wunderground v.1.15,2013-05-19 03:55:00,